Time;durP1;ratioP1;P1;durP2;ratioP2;P2;SDS_P1;SDS_P2;PMS_P1;PMS_P2;Temp;Humidity;BMP_temperature;BMP_pressure;BME280_temperature;BME280_humidity;BME280_pressure;Samples;Min_cycle;Max_cycle;Signal;HPM_P1;HPM_P2
2022/05/23 00:00:24;;;;;;;4.80;1.67;;;;;;;5.91;45.88;98327.03;4882109;29;20516;-69
2022/05/23 00:02:51;;;;;;;3.00;1.48;;;;;;;5.89;45.91;98320.22;4882033;29;20519;-69
2022/05/23 00:05:18;;;;;;;2.92;1.40;;;;;;;5.92;45.91;98325.09;4881771;29;20088;-69
2022/05/23 00:07:48;;;;;;;3.63;1.55;;;;;;;5.85;46.29;98327.53;4881884;29;20059;-73
2022/05/23 00:10:18;;;;;;;2.45;1.30;;;;;;;5.84;46.37;98328.69;4881757;29;20520;-70
2022/05/23 00:12:45;;;;;;;3.83;1.45;;;;;;;5.86;45.94;98329.97;4881604;29;20101;-70
2022/05/23 00:15:12;;;;;;;3.47;1.42;;;;;;;5.92;46.03;98331.41;4881510;29;20144;-68
2022/05/23 00:17:40;;;;;;;3.38;1.50;;;;;;;5.93;45.59;98329.44;4881665;29;20421;-67
2022/05/23 00:20:10;;;;;;;6.55;1.27;;;;;;;5.97;45.64;98333.16;4881508;29;20055;-69
2022/05/23 00:22:38;;;;;;;4.53;1.45;;;;;;;5.96;45.67;98334.31;4881654;29;20112;-68
2022/05/23 00:25:09;;;;;;;4.97;1.95;;;;;;;6.01;45.82;98339.66;4881339;29;20116;-68
2022/05/23 00:27:39;;;;;;;2.58;1.23;;;;;;;5.99;46.16;98337.22;4881550;29;20629;-68
2022/05/23 00:30:09;;;;;;;6.15;1.67;;;;;;;5.96;46.04;98337.06;4879685;29;20056;-67
2022/05/23 00:35:22;;;;;;;5.97;1.65;;;;;;;5.90;46.31;98338.41;4881205;29;20064;-68
2022/05/23 00:37:55;;;;;;;3.72;1.60;;;;;;;5.97;45.59;98338.69;4881143;29;20057;-67
2022/05/23 00:43:13;;;;;;;6.45;2.17;;;;;;;5.89;46.37;98336.78;4867898;29;20121;-69
2022/05/23 00:43:40;;;;;;;6.05;2.25;;;;;;;5.72;46.29;98342.34;4862509;29;20441;-68
2022/05/23 00:46:07;;;;;;;4.47;2.00;;;;;;;5.69;46.50;98347.38;4862482;29;20053;-68
2022/05/23 00:48:34;;;;;;;5.13;1.60;;;;;;;5.65;46.49;98346.41;4862299;29;20071;-68
2022/05/23 00:51:09;;;;;;;3.28;1.90;;;;;;;5.57;46.79;98346.44;4862502;29;20105;-68
2022/05/23 00:53:40;;;;;;;6.88;1.90;;;;;;;5.56;47.23;98350.31;4860991;29;20061;-68
2022/05/23 00:56:10;;;;;;;3.33;1.90;;;;;;;5.53;47.23;98339.94;4860862;29;20506;-68
2022/05/23 00:58:41;;;;;;;4.88;2.30;;;;;;;5.57;47.12;98347.25;4862330;29;20109;-68
2022/05/23 01:01:12;;;;;;;5.20;1.92;;;;;;;5.59;46.85;98344.97;4862076;29;20076;-69
2022/05/23 01:03:40;;;;;;;3.75;1.70;;;;;;;5.60;47.12;98341.06;4862313;29;20114;-71
2022/05/23 01:06:08;;;;;;;4.03;2.05;;;;;;;5.67;46.81;98351.59;4862199;29;20041;-72
2022/05/23 01:08:36;;;;;;;3.67;1.98;;;;;;;5.69;46.83;98358.41;4862261;29;20078;-70
2022/05/23 01:11:04;;;;;;;6.07;1.88;;;;;;;5.65;46.81;98357.44;4862388;29;20053;-70
2022/05/23 01:13:30;;;;;;;7.95;2.20;;;;;;;5.64;47.29;98353.09;4862088;29;20061;-70
2022/05/23 01:15:57;;;;;;;6.28;2.08;;;;;;;5.67;46.94;98362.63;4862027;29;20132;-70
2022/05/23 01:18:25;;;;;;;6.88;2.20;;;;;;;5.68;47.42;98352.41;4860920;29;20053;-69
2022/05/23 01:20:58;;;;;;;10.07;2.85;;;;;;;5.68;47.34;98359.56;4861978;29;20421;-69
2022/05/23 01:23:43;;;;;;;5.25;2.20;;;;;;;5.66;47.15;98366.53;4861940;29;20053;-69
2022/05/23 01:26:10;;;;;;;6.32;2.08;;;;;;;5.61;47.38;98363.94;4877306;29;20514;-69
2022/05/23 01:28:39;;;;;;;5.93;2.55;;;;;;;5.61;47.85;98369.47;4880186;29;20156;-70
2022/05/23 01:31:08;;;;;;;4.28;2.40;;;;;;;5.60;47.50;98362.34;4880042;29;20051;-73
2022/05/23 01:33:35;;;;;;;3.97;2.00;;;;;;;5.59;48.17;98367.03;4880292;29;20068;-69
2022/05/23 01:36:03;;;;;;;5.13;2.70;;;;;;;5.57;48.10;98361.03;4880542;29;20053;-69
2022/05/23 01:38:30;;;;;;;9.48;3.00;;;;;;;5.49;48.25;98361.88;4879170;29;20053;-70
2022/05/23 01:40:58;;;;;;;6.65;2.42;;;;;;;5.42;47.96;98366.28;4862647;29;20413;-69
2022/05/23 01:43:25;;;;;;;11.25;2.88;;;;;;;5.38;48.81;98366.13;4860962;29;20413;-70
2022/05/23 01:45:52;;;;;;;4.18;2.05;;;;;;;5.40;48.27;98363.84;4861666;29;20103;-69
2022/05/23 01:48:19;;;;;;;9.75;2.72;;;;;;;5.36;48.69;98362.06;4861742;29;20057;-70
2022/05/23 01:50:46;;;;;;;4.35;2.40;;;;;;;5.38;48.28;98360.59;4861465;29;20144;-70
2022/05/23 01:53:13;;;;;;;4.47;2.40;;;;;;;5.40;48.30;98369.38;4861837;29;20053;-70
2022/05/23 01:55:40;;;;;;;9.15;4.68;;;;;;;5.42;48.41;98366.28;4861538;29;20053;-69
2022/05/23 01:58:07;;;;;;;5.65;3.05;;;;;;;5.38;49.01;98368.88;4861298;29;20060;-69
2022/05/23 02:03:21;;;;;;;5.57;2.67;;;;;;;5.37;48.82;98370.03;4861500;29;20080;-69
2022/05/23 02:05:48;;;;;;;8.07;2.95;;;;;;;5.37;48.89;98371.97;4861145;29;20128;-69
2022/05/23 02:08:15;;;;;;;4.97;2.08;;;;;;;5.31;48.84;98376.84;4860190;29;20057;-70
2022/05/23 02:10:43;;;;;;;4.25;2.67;;;;;;;5.25;48.92;98369.06;4860757;29;20143;-69
2022/05/23 02:13:10;;;;;;;5.60;2.78;;;;;;;5.18;49.36;98371.50;4860178;29;20109;-69
2022/05/23 02:15:37;;;;;;;4.80;2.40;;;;;;;5.11;49.12;98369.25;4861372;29;20144;-70
2022/05/23 02:18:05;;;;;;;4.63;2.30;;;;;;;5.11;49.54;98366.47;4859883;29;20057;-69
2022/05/23 02:20:32;;;;;;;4.35;2.35;;;;;;;5.12;49.04;98381.06;4860218;29;20057;-70
2022/05/23 02:22:59;;;;;;;4.43;2.40;;;;;;;5.14;48.99;98379.63;4860947;29;20125;-70
2022/05/23 02:25:26;;;;;;;4.20;2.53;;;;;;;5.21;49.10;98377.16;4860803;29;20136;-70
2022/05/23 02:27:54;;;;;;;5.72;2.53;;;;;;;5.24;48.98;98378.47;4861146;29;20061;-70
2022/05/23 02:30:22;;;;;;;4.18;2.30;;;;;;;5.31;49.33;98376.84;4877342;29;20065;-69
2022/05/23 02:32:49;;;;;;;13.13;2.70;;;;;;;5.33;48.69;98371.78;4878989;29;20057;-69
2022/05/23 02:35:18;;;;;;;3.78;2.28;;;;;;;5.31;48.97;98363.06;4879413;29;20486;-70
2022/05/23 02:37:45;;;;;;;11.82;2.00;;;;;;;5.32;48.71;98361.91;4879586;29;20079;-73
2022/05/23 02:40:13;;;;;;;4.93;2.30;;;;;;;5.38;48.42;98360.59;4879082;29;20067;-71
2022/05/23 02:42:40;;;;;;;7.63;2.33;;;;;;;5.41;48.34;98367.41;4879265;29;20136;-70
2022/05/23 02:45:08;;;;;;;5.50;1.90;;;;;;;5.46;48.37;98368.06;4879057;29;20513;-72
2022/05/23 02:47:35;;;;;;;5.32;1.98;;;;;;;5.43;48.20;98374.22;4879312;29;20511;-70
2022/05/23 02:50:03;;;;;;;7.50;2.00;;;;;;;5.39;48.55;98364.19;4878808;29;20064;-70
2022/05/23 02:52:30;;;;;;;5.22;1.80;;;;;;;5.39;48.57;98375.22;4878794;29;20091;-71
2022/05/23 02:54:57;;;;;;;3.08;2.03;;;;;;;5.41;48.11;98372.91;4878065;29;20045;-69
2022/05/23 02:57:23;;;;;;;4.32;1.70;;;;;;;5.47;48.46;98380.69;4878725;29;20053;-72
2022/05/23 02:59:50;;;;;;;4.75;1.92;;;;;;;5.51;47.86;98372.59;4879124;29;20061;-69
2022/05/23 03:05:11;;;;;;;5.32;1.80;;;;;;;5.58;47.49;98376.47;4870811;29;20151;-69
2022/05/23 03:07:38;;;;;;;5.75;1.58;;;;;;;5.58;47.50;98376.47;4878908;29;20049;-70
2022/05/23 03:10:06;;;;;;;3.88;1.70;;;;;;;5.62;47.57;98371.91;4877730;29;20510;-68
2022/05/23 03:12:36;;;;;;;4.25;1.88;;;;;;;5.75;47.42;98381.13;4878863;29;20076;-69
2022/05/23 03:15:05;;;;;;;5.80;2.20;;;;;;;5.92;46.95;98380.28;4878984;29;20468;-69
2022/05/23 03:17:32;;;;;;;8.13;1.77;;;;;;;5.97;47.00;98382.84;4878677;29;20091;-69
2022/05/23 03:20:00;;;;;;;5.95;2.10;;;;;;;5.96;46.66;98382.06;4878619;29;20237;-69
2022/05/23 03:28:08;;;;;;;4.35;1.95;;;;;;;6.18;45.97;98383.72;4878725;29;20076;-69
2022/05/23 03:30:36;;;;;;;4.57;2.17;;;;;;;6.40;46.10;98386.22;4877393;29;20061;-69
2022/05/23 03:33:03;;;;;;;3.58;1.88;;;;;;;6.69;44.75;98388.97;4878250;29;20057;-68
2022/05/23 03:35:32;;;;;;;5.50;2.28;;;;;;;6.83;45.30;98383.97;4878638;29;20091;-70
2022/05/23 03:38:01;;;;;;;3.95;2.28;;;;;;;7.06;44.10;98382.50;4878974;29;20564;-69
2022/05/23 03:40:28;;;;;;;6.47;2.13;;;;;;;7.14;44.18;98378.88;4878477;29;20080;-69
2022/05/23 03:42:55;;;;;;;5.15;2.17;;;;;;;7.11;44.21;98385.06;4878299;29;20136;-70
2022/05/23 03:45:23;;;;;;;3.72;2.05;;;;;;;7.15;44.29;98383.25;4878241;29;20053;-69
2022/05/23 03:47:51;;;;;;;4.82;2.58;;;;;;;7.12;44.17;98378.38;4878339;29;20072;-70
2022/05/23 03:50:19;;;;;;;4.57;2.05;;;;;;;7.15;43.95;98377.72;4878508;29;20133;-70
2022/05/23 03:52:46;;;;;;;4.95;2.40;;;;;;;7.19;43.88;98373.09;4878547;29;20077;-69
2022/05/23 03:55:14;;;;;;;6.20;2.55;;;;;;;7.17;43.47;98376.22;4878756;29;20520;-70
2022/05/23 03:57:41;;;;;;;5.63;2.60;;;;;;;7.29;43.01;98381.00;4878488;29;20092;-70
2022/05/23 04:00:09;;;;;;;6.93;2.80;;;;;;;7.44;42.80;98378.41;4878512;29;20073;-69
2022/05/23 04:02:36;;;;;;;7.88;2.55;;;;;;;7.51;42.95;98380.63;4878174;29;20084;-68
2022/05/23 04:05:04;;;;;;;4.68;2.38;;;;;;;7.47;42.90;98377.72;4878964;29;20072;-71
2022/05/23 04:07:35;;;;;;;7.55;2.50;;;;;;;7.58;42.59;98374.53;4882086;29;20056;-69
2022/05/23 04:10:04;;;;;;;4.68;2.47;;;;;;;7.66;43.01;98377.22;4881895;29;20056;-70
2022/05/23 04:12:31;;;;;;;3.53;2.38;;;;;;;7.68;42.71;98371.34;4882180;29;20089;-69
2022/05/23 04:14:58;;;;;;;5.30;2.58;;;;;;;7.75;42.38;98372.38;4881695;29;20052;-69
2022/05/23 04:17:25;;;;;;;10.05;2.53;;;;;;;7.82;42.48;98369.88;4880424;29;20493;-67
2022/05/23 04:19:52;;;;;;;7.70;2.90;;;;;;;7.86;42.35;98372.75;4881607;29;20084;-68
2022/05/23 04:22:19;;;;;;;5.85;2.47;;;;;;;7.99;42.07;98377.19;4881546;29;20056;-67
2022/05/23 04:24:46;;;;;;;6.35;2.58;;;;;;;7.98;42.10;98361.69;4881904;29;20056;-69
2022/05/23 04:27:18;;;;;;;9.95;2.60;;;;;;;7.99;41.64;98366.09;4881203;29;20056;-68
2022/05/23 04:29:45;;;;;;;5.80;2.72;;;;;;;8.21;41.47;98355.38;4881188;29;20151;-67
2022/05/23 04:35:13;;;;;;;10.18;3.00;;;;;;;8.43;40.74;98357.72;4881253;29;20390;-68
2022/05/23 04:37:42;;;;;;;11.65;2.88;;;;;;;8.47;40.74;98358.63;4881402;29;20059;-68
2022/05/23 04:40:09;;;;;;;4.68;2.47;;;;;;;8.70;40.54;98354.22;4881021;29;20056;-69
2022/05/23 04:42:36;;;;;;;5.63;2.47;;;;;;;8.99;40.36;98351.16;4881231;29;20057;-68
2022/05/23 04:45:04;;;;;;;8.05;2.80;;;;;;;9.13;39.78;98348.00;4880864;29;20049;-69
2022/05/23 04:50:17;;;;;;;5.78;2.40;;;;;;;9.49;38.73;98361.72;4881394;29;20045;-69
2022/05/23 04:52:44;;;;;;;5.32;2.67;;;;;;;9.55;38.32;98356.69;4881080;29;20076;-69
2022/05/23 04:55:11;;;;;;;6.72;2.42;;;;;;;9.46;38.98;98362.41;4879480;29;20053;-69
2022/05/23 04:57:38;;;;;;;4.63;2.50;;;;;;;9.41;38.85;98362.66;4880589;29;20052;-69
2022/05/23 05:00:07;;;;;;;5.75;2.83;;;;;;;9.46;39.14;98364.38;4880908;29;20059;-69
2022/05/23 05:02:36;;;;;;;6.53;2.45;;;;;;;9.60;39.07;98365.59;4880828;29;20065;-69
2022/05/23 05:05:04;;;;;;;13.48;2.58;;;;;;;9.59;39.02;98349.28;4880520;29;20135;-69
2022/05/23 05:07:32;;;;;;;10.70;2.90;;;;;;;9.49;39.33;98353.38;4880975;29;20195;-70
2022/05/23 05:09:59;;;;;;;4.80;2.60;;;;;;;9.60;39.29;98354.50;4880776;29;20053;-70
2022/05/23 05:12:28;;;;;;;4.55;2.50;;;;;;;9.83;38.46;98346.38;4880592;29;20056;-70
2022/05/23 05:14:55;;;;;;;9.40;4.18;;;;;;;10.40;37.61;98338.34;4880930;29;20059;-71
2022/05/23 05:17:22;;;;;;;3.63;2.03;;;;;;;10.64;37.10;98344.50;4879587;29;20057;-69
2022/05/23 05:19:49;;;;;;;5.30;2.20;;;;;;;10.62;36.37;98344.03;4880614;29;20061;-70
2022/05/23 05:22:17;;;;;;;5.20;2.17;;;;;;;10.75;36.75;98336.38;4880566;29;20144;-68
2022/05/23 05:24:44;;;;;;;4.20;2.28;;;;;;;10.82;36.65;98336.53;4879038;29;20074;-68
2022/05/23 05:27:11;;;;;;;4.97;2.75;;;;;;;10.92;35.84;98338.75;4880618;29;20497;-69
2022/05/23 05:29:38;;;;;;;7.93;3.38;;;;;;;11.12;35.91;98329.25;4880363;29;20052;-69
2022/05/23 05:32:18;;;;;;;4.93;2.95;;;;;;;11.26;35.16;98332.34;4880226;29;20064;-69
2022/05/23 05:34:53;;;;;;;4.35;2.30;;;;;;;11.24;35.26;98329.09;4872229;29;20053;-69
2022/05/23 05:37:27;;;;;;;4.78;2.40;;;;;;;11.46;35.58;98325.56;4861434;29;20418;-71
2022/05/23 05:39:55;;;;;;;12.23;2.40;;;;;;;11.76;35.77;98323.81;4861927;29;20504;-70
2022/05/23 05:42:32;;;;;;;3.13;2.00;;;;;;;11.92;35.02;98318.94;4867976;29;20510;-70
2022/05/23 05:45:07;;;;;;;4.40;2.15;;;;;;;11.90;34.71;98323.28;4879796;29;20513;-70
2022/05/23 05:47:39;;;;;;;3.78;1.98;;;;;;;12.19;33.68;98309.44;4879998;29;20160;-69
2022/05/23 05:50:24;;;;;;;7.95;1.85;;;;;;;12.21;33.13;98318.25;4879905;29;20386;-69
2022/05/23 05:52:55;;;;;;;3.10;1.70;;;;;;;12.25;33.48;98310.75;4879759;29;20072;-69
2022/05/23 05:55:22;;;;;;;4.20;2.17;;;;;;;12.77;32.74;98310.75;4880032;29;20472;-69
2022/05/23 05:57:50;;;;;;;5.35;2.03;;;;;;;13.73;31.56;98313.59;4880038;29;20055;-68
2022/05/23 06:00:17;;;;;;;3.35;1.80;;;;;;;13.85;30.40;98307.72;4879357;29;20082;-69
2022/05/23 06:02:44;;;;;;;5.05;2.05;;;;;;;15.98;27.91;98318.69;4879780;29;20061;-68
2022/05/23 06:05:12;;;;;;;7.70;2.25;;;;;;;20.12;23.07;98308.91;4879737;29;20061;-68
2022/05/23 06:13:10;;;;;;;3.17;1.70;;;;;;;23.87;18.71;98299.84;4878796;29;20159;-68
2022/05/23 06:15:37;;;;;;;9.20;2.00;;;;;;;22.31;19.15;98290.22;4879460;29;20139;-69
2022/05/23 06:18:04;;;;;;;3.40;1.65;;;;;;;19.96;21.24;98290.59;4879554;29;20053;-68
2022/05/23 06:20:31;;;;;;;3.50;1.50;;;;;;;17.88;23.36;98290.25;4879464;29;20532;-68
2022/05/23 06:23:01;;;;;;;5.13;1.77;;;;;;;16.36;25.11;98284.25;4879308;29;20465;-69
2022/05/23 06:25:29;;;;;;;5.95;2.08;;;;;;;15.50;26.04;98288.50;4879565;29;20071;-68
2022/05/23 06:27:56;;;;;;;3.58;1.80;;;;;;;14.86;26.80;98278.97;4879047;29;20063;-69
2022/05/23 06:30:24;;;;;;;7.93;1.73;;;;;;;14.25;27.76;98287.34;4879276;29;20073;-68
2022/05/23 06:32:52;;;;;;;10.70;1.73;;;;;;;14.72;27.23;98283.69;4879154;29;20069;-68
2022/05/23 06:35:19;;;;;;;13.38;2.45;;;;;;;15.45;26.13;98272.88;4879051;29;20159;-69
2022/05/23 06:37:46;;;;;;;4.75;1.80;;;;;;;16.05;25.14;98276.63;4879376;29;20049;-67
2022/05/23 06:40:15;;;;;;;11.93;1.83;;;;;;;15.63;25.18;98284.94;4878826;29;20057;-68
2022/05/23 06:42:42;;;;;;;3.67;2.03;;;;;;;15.10;25.46;98272.69;4878854;29;20460;-68
2022/05/23 06:45:10;;;;;;;2.70;1.52;;;;;;;14.99;25.86;98271.88;4879031;29;20052;-69
2022/05/23 06:47:37;;;;;;;3.60;1.67;;;;;;;15.09;26.20;98276.72;4879542;29;20097;-68
2022/05/23 06:50:05;;;;;;;3.42;1.40;;;;;;;16.32;24.73;98279.84;4878862;29;20053;-69
2022/05/23 06:52:33;;;;;;;3.50;1.65;;;;;;;19.04;22.22;98273.19;4878686;29;20433;-69
2022/05/23 06:55:00;;;;;;;5.90;1.92;;;;;;;24.15;17.51;98264.91;4878966;29;20056;-68
2022/05/23 06:57:34;;;;;;;3.20;1.80;;;;;;;27.14;14.96;98251.63;4878886;29;20097;-68
2022/05/23 07:00:01;;;;;;;9.23;2.00;;;;;;;29.19;13.08;98253.56;4878828;29;20061;-69
2022/05/23 07:02:29;;;;;;;2.38;1.67;;;;;;;30.78;12.08;98257.06;4878964;29;20053;-69
2022/05/23 07:13:13;;;;;;;5.72;1.60;;;;;;;34.51;8.99;98234.56;4878462;29;20428;-68
2022/05/23 07:15:46;;;;;;;7.53;1.67;;;;;;;35.16;8.82;98243.66;4878777;29;20045;-69
2022/05/23 07:18:15;;;;;;;4.18;1.73;;;;;;;35.78;8.54;98242.91;4878768;29;20072;-69
2022/05/23 07:20:42;;;;;;;8.23;2.53;;;;;;;35.96;8.01;98248.09;4878372;29;20143;-71
2022/05/23 07:23:10;;;;;;;3.00;1.45;;;;;;;36.24;7.95;98245.00;4878655;29;20056;-70
2022/05/23 07:25:38;;;;;;;2.45;1.70;;;;;;;37.51;7.47;98243.81;4878409;29;20147;-70
2022/05/23 07:28:12;;;;;;;5.93;1.65;;;;;;;39.18;7.21;98234.84;4878716;29;20045;-70
2022/05/23 07:30:40;;;;;;;8.63;1.60;;;;;;;39.52;6.57;98248.19;4878373;29;20049;-70
2022/05/23 07:33:07;;;;;;;6.20;1.50;;;;;;;39.48;6.26;98230.28;4878363;29;20073;-72
2022/05/23 07:35:34;;;;;;;44.58;21.60;;;;;;;39.92;5.83;98235.16;4877861;29;20061;-70
2022/05/23 07:38:01;;;;;;;3.22;1.63;;;;;;;40.40;6.05;98233.00;4878433;29;20124;-71
2022/05/23 07:40:29;;;;;;;5.20;1.50;;;;;;;41.86;5.24;98227.91;4879973;29;20505;-72
2022/05/23 07:42:56;;;;;;;6.25;1.60;;;;;;;42.45;5.16;98226.59;4881016;29;20402;-70
2022/05/23 07:45:22;;;;;;;3.53;1.30;;;;;;;40.69;5.49;98225.91;4881786;29;20089;-71
2022/05/23 07:47:49;;;;;;;7.10;1.48;;;;;;;38.90;6.29;98220.81;4881904;29;20429;-69
2022/05/23 07:50:19;;;;;;;2.25;1.40;;;;;;;40.03;5.88;98228.28;4880916;29;20116;-70
2022/05/23 08:00:31;;;;;;;1.95;1.33;;;;;;;41.58;4.92;98216.28;4882495;29;20379;-70
2022/05/23 08:01:04;;;;;;;3.80;1.33;;;;;;;34.73;8.15;98210.66;4881674;29;20153;-71
2022/05/23 08:03:31;;;;;;;6.15;1.48;;;;;;;36.61;7.15;98213.38;4881401;29;20127;-70
2022/05/23 08:05:58;;;;;;;3.40;1.50;;;;;;;39.45;5.83;98208.09;4881551;29;20385;-69
2022/05/23 08:08:26;;;;;;;6.30;1.50;;;;;;;40.91;5.20;98196.91;4881508;29;20060;-71
2022/05/23 08:10:53;;;;;;;3.67;1.65;;;;;;;42.52;5.02;98189.91;4881476;29;20049;-70
2022/05/23 08:13:20;;;;;;;6.30;1.40;;;;;;;40.89;5.28;98199.63;4881530;29;20085;-70
2022/05/23 08:15:47;;;;;;;4.07;1.50;;;;;;;36.48;7.19;98196.63;4881425;29;20076;-70
2022/05/23 08:18:16;;;;;;;2.92;1.58;;;;;;;38.51;6.42;98191.63;4881263;29;20049;-71
2022/05/23 08:20:43;;;;;;;2.20;1.30;;;;;;;40.06;5.32;98191.41;4881471;29;20061;-72
2022/05/23 08:23:10;;;;;;;6.03;2.38;;;;;;;41.39;4.79;98195.31;4881501;29;20053;-71
2022/05/23 08:25:37;;;;;;;12.30;1.30;;;;;;;41.83;4.92;98188.16;4881448;29;20420;-72
2022/05/23 08:28:04;;;;;;;6.32;1.35;;;;;;;41.98;4.56;98182.41;4881574;29;20092;-72
2022/05/23 08:30:32;;;;;;;4.10;1.35;;;;;;;42.81;4.30;98183.31;4881334;29;20064;-72
2022/05/23 08:32:59;;;;;;;8.68;1.50;;;;;;;43.19;3.92;98184.06;4880446;29;20163;-72
2022/05/23 08:35:27;;;;;;;3.22;1.75;;;;;;;43.12;4.20;98179.00;4868165;29;20049;-72
2022/05/23 08:37:58;;;;;;;3.00;1.45;;;;;;;43.64;4.13;98182.41;4862413;29;20424;-71
2022/05/23 08:40:56;;;;;;;3.25;1.50;;;;;;;44.98;3.31;98176.31;4862288;29;20088;-71
2022/05/23 08:43:28;;;;;;;2.80;1.40;;;;;;;45.46;3.42;98184.25;4862561;29;20073;-71
2022/05/23 08:45:57;;;;;;;4.63;1.70;;;;;;;44.52;3.17;98161.97;4862296;29;20547;-70
2022/05/23 08:48:44;;;;;;;6.25;1.50;;;;;;;42.55;3.78;98171.97;4862219;29;20463;-72
2022/05/23 08:51:18;;;;;;;9.77;1.60;;;;;;;43.53;3.63;98171.09;4862008;29;20095;-72
2022/05/23 08:54:04;;;;;;;4.50;1.40;;;;;;;45.04;3.06;98171.00;4862226;29;20428;-74
2022/05/23 08:56:39;;;;;;;3.45;1.70;;;;;;;45.48;3.54;98166.00;4862111;29;20059;-75
2022/05/23 08:59:34;;;;;;;5.57;2.95;;;;;;;46.18;3.10;98166.88;4862473;29;20053;-72
2022/05/23 09:02:08;;;;;;;4.68;1.70;;;;;;;46.63;2.78;98158.75;4854818;29;20076;-71
2022/05/23 09:04:35;;;;;;;3.10;1.45;;;;;;;45.96;3.07;98167.97;4862056;29;20060;-71
2022/05/23 09:07:06;;;;;;;9.85;1.73;;;;;;;46.02;2.91;98170.63;4862162;29;20543;-71
2022/05/23 09:09:36;;;;;;;7.30;1.73;;;;;;;45.94;2.87;98169.97;4862059;29;20057;-71
2022/05/23 09:12:15;;;;;;;3.30;1.40;;;;;;;45.87;2.85;98165.75;4877834;29;20109;-72
2022/05/23 09:14:42;;;;;;;6.28;1.60;;;;;;;45.37;2.70;98173.16;4880745;29;20052;-71
2022/05/23 09:17:20;;;;;;;3.58;1.45;;;;;;;44.66;3.32;98171.28;4880412;29;20433;-72
2022/05/23 09:20:10;;;;;;;6.28;1.90;;;;;;;44.56;3.37;98173.31;4880914;29;20052;-74
2022/05/23 09:22:53;;;;;;;2.58;1.60;;;;;;;45.03;2.96;98164.34;4880584;29;20525;-71
2022/05/23 09:25:25;;;;;;;2.63;1.50;;;;;;;45.97;3.13;98151.88;4880792;29;20124;-71
2022/05/23 09:28:15;;;;;;;8.10;2.20;;;;;;;46.30;2.82;98164.97;4880475;29;20517;-71
2022/05/23 09:30:48;;;;;;;3.72;1.55;;;;;;;45.32;3.20;98168.34;4880151;29;20053;-71
2022/05/23 09:33:20;;;;;;;4.50;1.23;;;;;;;43.82;3.40;98158.50;4879958;29;20069;-71
2022/05/23 09:36:12;;;;;;;5.13;1.45;;;;;;;37.85;5.67;98154.91;4880107;29;20056;-71
2022/05/23 09:39:07;;;;;;;5.85;1.25;;;;;;;31.96;8.17;98150.34;4880310;29;20417;-72
2022/05/23 09:47:48;;;;;;;2.80;1.38;;;;;;;24.39;13.69;98150.41;4879971;29;20509;-71
2022/05/23 09:50:27;;;;;;;6.38;1.10;;;;;;;22.69;14.52;98141.06;4879996;29;20060;-71
2022/05/23 09:53:21;;;;;;;13.45;1.60;;;;;;;21.33;15.84;98157.34;4880342;29;20061;-71
2022/05/23 09:55:49;;;;;;;;;;;;;;;20.48;16.90;98146.94;4880313;29;20088;-73
2022/05/23 09:58:28;;;;;;;5.32;1.30;;;;;;;19.68;18.10;98144.25;4879981;29;19936;-70
2022/05/23 10:00:57;;;;;;;3.00;1.50;;;;;;;19.08;18.83;98154.78;4879728;29;20056;-72
2022/05/23 10:03:28;;;;;;;13.30;1.65;;;;;;;18.64;19.27;98140.81;4879494;29;20446;-73
2022/05/23 10:06:11;;;;;;;4.30;1.50;;;;;;;18.62;18.97;98148.91;4879569;29;20064;-71
2022/05/23 10:08:44;;;;;;;2.97;1.27;;;;;;;18.58;19.35;98137.66;4879638;29;20524;-72
2022/05/23 10:11:32;;;;;;;6.32;1.50;;;;;;;18.40;19.81;98139.88;4879388;29;20053;-72
2022/05/23 10:14:03;;;;;;;4.07;1.30;;;;;;;17.90;20.54;98139.53;4879110;29;20051;-72
2022/05/23 10:16:43;;;;;;;6.75;1.27;;;;;;;17.71;20.32;98150.53;4879384;29;20155;-72
2022/05/23 10:19:12;;;;;;;3.78;1.30;;;;;;;17.47;20.77;98143.88;4879479;29;20057;-71
2022/05/23 10:21:43;;;;;;;13.93;2.38;;;;;;;17.14;21.24;98143.66;4879336;29;20059;-72
2022/05/23 10:24:27;;;;;;;3.72;1.42;;;;;;;16.89;21.83;98135.34;4879304;29;20116;-71
2022/05/23 10:27:01;;;;;;;2.30;1.25;;;;;;;16.81;21.90;98133.00;4879048;29;20484;-73
2022/05/23 10:29:48;;;;;;;3.25;1.40;;;;;;;16.94;21.75;98128.50;4879630;29;20143;-71
2022/05/23 10:32:34;;;;;;;10.18;1.35;;;;;;;16.95;21.90;98121.66;4878786;29;20065;-71
2022/05/23 10:35:09;;;;;;;3.92;1.40;;;;;;;17.12;22.09;98137.63;4879079;29;20521;-72
2022/05/23 10:37:40;;;;;;;4.13;1.48;;;;;;;17.17;22.00;98137.22;4879155;29;20052;-72
2022/05/23 10:43:20;;;;;;;4.65;1.45;;;;;;;16.97;22.28;98136.94;4878988;29;20144;-72
2022/05/23 10:45:56;;;;;;;6.47;1.55;;;;;;;16.90;22.32;98136.16;4878894;29;20053;-71
2022/05/23 10:48:44;;;;;;;4.82;1.60;;;;;;;16.91;22.44;98132.13;4877660;29;20413;-71
2022/05/23 10:51:30;;;;;;;9.93;1.67;;;;;;;16.91;22.61;98135.75;4879081;29;20508;-72
2022/05/23 10:54:27;;;;;;;7.95;1.63;;;;;;;16.74;22.56;98138.63;4878676;29;20080;-71
2022/05/23 10:57:11;;;;;;;2.97;1.38;;;;;;;16.60;22.50;98135.84;4874752;29;20436;-72
2022/05/23 10:59:45;;;;;;;4.60;1.30;;;;;;;16.58;22.67;98127.06;4879144;29;20540;-72
2022/05/23 11:02:42;;;;;;;3.63;1.40;;;;;;;16.69;22.17;98128.59;4878707;29;20061;-72
2022/05/23 11:05:27;;;;;;;6.47;1.40;;;;;;;16.71;22.59;98126.19;4878926;29;20147;-73
2022/05/23 11:08:32;;;;;;;2.05;1.10;;;;;;;16.61;22.25;98117.81;4862422;29;20067;-72
2022/05/23 11:11:38;;;;;;;3.10;1.38;;;;;;;16.30;22.77;98127.91;4878421;29;20095;-72
2022/05/23 11:14:11;;;;;;;8.75;1.60;;;;;;;15.94;23.02;98124.38;4878667;29;20049;-72
2022/05/23 11:17:23;;;;;;;5.18;1.30;;;;;;;15.61;23.56;98124.78;4881828;29;20588;-72
2022/05/23 11:20:03;;;;;;;3.92;1.35;;;;;;;15.39;24.05;98127.94;4881294;29;20083;-71
2022/05/23 11:22:33;;;;;;;;;;;;;;;15.45;23.77;98129.94;4883280;29;20060;-72
2022/05/23 11:25:20;;;;;;;3.15;1.15;;;;;;;15.68;23.74;98124.78;4882656;29;19932;-71
2022/05/23 11:33:49;;;;;;;5.72;1.33;;;;;;;16.08;24.13;98131.97;4882161;29;20585;-73
2022/05/23 11:36:33;;;;;;;4.85;1.45;;;;;;;16.12;23.92;98133.56;4882436;29;20530;-72
2022/05/23 11:39:01;;;;;;;3.10;1.15;;;;;;;16.12;24.05;98127.94;4882273;29;20436;-72
2022/05/23 11:41:30;;;;;;;4.25;1.42;;;;;;;16.23;24.35;98130.72;4881922;29;20482;-72
2022/05/23 11:43:57;;;;;;;5.28;1.48;;;;;;;16.22;23.80;98124.31;4882454;29;20129;-72
2022/05/23 11:46:27;;;;;;;4.28;1.33;;;;;;;16.20;23.52;98109.88;4882165;29;20064;-72
2022/05/23 11:49:00;;;;;;;6.20;1.20;;;;;;;16.04;23.50;98103.91;4882125;29;20059;-71
2022/05/23 11:51:41;;;;;;;3.95;1.65;;;;;;;15.94;23.27;98113.16;4881810;29;20056;-72
2022/05/23 11:54:12;;;;;;;6.35;1.50;;;;;;;15.84;23.74;98113.94;4882048;29;20048;-71
2022/05/23 11:57:00;;;;;;;7.72;1.92;;;;;;;15.81;24.04;98123.16;4882010;29;20059;-70
2022/05/23 11:59:28;;;;;;;2.30;1.15;;;;;;;15.85;24.17;98123.97;4882775;29;20047;-71
2022/05/23 12:02:07;;;;;;;4.43;1.30;;;;;;;15.99;24.20;98123.94;4882168;29;20048;-73
2022/05/23 12:04:40;;;;;;;8.32;4.45;;;;;;;15.82;24.01;98118.34;4863854;29;20062;-73
2022/05/23 12:07:44;;;;;;;2.88;1.50;;;;;;;15.60;24.26;98114.75;4863276;29;20512;-71
2022/05/23 12:10:39;;;;;;;4.15;1.20;;;;;;;15.54;24.26;98119.16;4875792;29;20509;-72
2022/05/23 12:13:30;;;;;;;4.53;1.25;;;;;;;15.82;24.20;98123.97;4876089;29;20053;-74
2022/05/23 12:16:37;;;;;;;2.83;1.30;;;;;;;16.01;23.29;98110.31;4879126;29;20505;-72
2022/05/23 12:19:35;;;;;;;3.38;1.30;;;;;;;15.90;22.83;98120.75;4877973;29;20105;-73
2022/05/23 12:22:28;;;;;;;5.50;0.90;;;;;;;15.95;22.61;98125.94;4874390;29;20064;-73
2022/05/23 12:25:22;;;;;;;4.47;1.20;;;;;;;15.64;23.47;98132.38;4879298;29;20059;-73
2022/05/23 12:27:52;;;;;;;2.63;1.17;;;;;;;15.54;23.27;98124.75;4877551;29;20533;-73
2022/05/23 12:30:22;;;;;;;4.55;1.10;;;;;;;15.59;23.52;98127.16;4872785;29;20045;-72
2022/05/23 12:33:03;;;;;;;4.45;1.40;;;;;;;15.74;23.63;98128.78;4879308;29;20059;-74
2022/05/23 12:35:30;;;;;;;7.18;1.63;;;;;;;15.74;22.88;98134.38;4880455;29;20100;-73
2022/05/23 12:37:57;;;;;;;1.80;1.08;;;;;;;15.76;22.83;98120.78;4870133;29;20057;-72
2022/05/23 12:40:37;;;;;;;4.28;1.15;;;;;;;15.68;23.01;98124.78;4881629;29;20041;-72
2022/05/23 12:43:38;;;;;;;5.80;1.67;;;;;;;15.53;22.83;98117.56;4878451;29;20056;-71
2022/05/23 12:46:05;;;;;;;4.32;1.55;;;;;;;15.35;22.76;98121.50;4880944;29;20489;-71
2022/05/23 12:48:53;;;;;;;5.60;1.20;;;;;;;15.29;22.86;98112.69;4880260;29;20072;-72
2022/05/23 12:51:33;;;;;;;4.85;1.42;;;;;;;15.37;22.22;98119.13;4880801;29;20065;-71
2022/05/23 12:54:16;;;;;;;10.02;1.60;;;;;;;15.36;22.46;98112.69;4880827;29;20513;-70
2022/05/23 12:57:05;;;;;;;4.75;1.40;;;;;;;15.38;22.01;98096.34;4880876;29;20059;-71